Time;durP1;ratioP1;P1;durP2;ratioP2;P2;SDS_P1;SDS_P2;PMS_P1;PMS_P2;Temp;Humidity;BMP_temperature;BMP_pressure;BME280_temperature;BME280_humidity;BME280_pressure;Samples;Min_cycle;Max_cycle;Signal;HPM_P1;HPM_P2
2022/04/05 00:01:40;;;;;;;6.85;5.53;;;;;;;5.60;79.50;99168.56;4887263;29;20102;-74
2022/04/05 00:04:06;;;;;;;6.75;5.97;;;;;;;5.56;80.34;99122.38;4889956;29;20528;-73
2022/04/05 00:06:31;;;;;;;6.72;5.70;;;;;;;5.59;80.60;99140.69;4887596;29;20515;-74
2022/04/05 00:08:56;;;;;;;6.90;5.78;;;;;;;5.44;81.44;99154.75;4888256;29;20036;-73
2022/04/05 00:11:22;;;;;;;7.38;5.93;;;;;;;5.34;83.72;99133.88;4888826;29;20047;-74
2022/04/05 00:13:47;;;;;;;7.05;5.95;;;;;;;5.30;83.89;99124.34;4886934;29;20040;-74
2022/04/05 00:16:13;;;;;;;8.05;5.90;;;;;;;5.25;83.22;99140.94;4888335;29;20111;-74
2022/04/05 00:18:41;;;;;;;8.38;6.18;;;;;;;5.19;84.30;99125.28;4892831;29;20043;-75
2022/04/05 00:21:06;;;;;;;8.13;6.45;;;;;;;5.22;84.42;99125.25;4890105;29;20036;-75
2022/04/05 00:23:32;;;;;;;8.07;6.47;;;;;;;5.18;84.81;99122.66;4886722;29;20502;-75
2022/04/05 00:25:57;;;;;;;9.90;6.57;;;;;;;5.09;86.03;99123.59;4890737;29;20036;-75
2022/04/05 00:28:22;;;;;;;7.25;5.95;;;;;;;5.06;86.38;99110.56;4892534;29;20527;-76
2022/04/05 00:30:48;;;;;;;7.75;6.05;;;;;;;5.04;86.85;99122.75;4888056;29;20039;-76
2022/04/05 00:33:13;;;;;;;8.60;6.90;;;;;;;5.02;86.99;99121.91;4887033;29;20401;-75
2022/04/05 00:35:39;;;;;;;7.38;6.43;;;;;;;5.05;86.94;99116.66;4889397;29;20419;-76
2022/04/05 00:38:04;;;;;;;10.57;6.60;;;;;;;5.01;87.28;99114.94;4886214;29;20049;-76
2022/04/05 00:40:30;;;;;;;7.45;6.57;;;;;;;5.04;86.97;99109.69;4887009;29;20032;-75
2022/04/05 00:42:56;;;;;;;8.25;6.70;;;;;;;5.01;86.65;99088.81;4894933;29;20496;-75
2022/04/05 00:45:21;;;;;;;7.93;6.88;;;;;;;5.00;86.99;99092.28;4886649;29;20579;-76
2022/04/05 00:47:51;;;;;;;8.45;7.15;;;;;;;4.99;88.35;99101.00;4889121;29;20048;-76
2022/04/05 00:50:22;;;;;;;7.95;6.50;;;;;;;5.03;87.93;99108.81;4887749;29;20026;-76
2022/04/05 00:52:48;;;;;;;8.13;7.05;;;;;;;5.00;88.28;99105.34;4886013;29;20040;-75
2022/04/05 00:55:17;;;;;;;8.18;6.55;;;;;;;5.02;88.02;99114.06;4895113;29;20041;-75
2022/04/05 00:57:45;;;;;;;7.43;6.53;;;;;;;5.08;87.67;99113.16;4885173;29;20040;-75
2022/04/05 01:00:10;;;;;;;8.45;6.65;;;;;;;5.07;86.83;99130.59;4886665;29;20073;-76
2022/04/05 01:02:38;;;;;;;9.77;6.38;;;;;;;5.14;86.79;99105.28;4888677;29;20079;-76
2022/04/05 01:05:05;;;;;;;9.18;7.28;;;;;;;5.18;87.42;99115.69;4889745;29;20579;-76
2022/04/05 01:07:32;;;;;;;7.60;6.35;;;;;;;5.19;87.47;99109.59;4886999;29;20047;-75
2022/04/05 01:09:58;;;;;;;9.55;6.13;;;;;;;5.19;86.93;99117.44;4886367;29;20037;-75
2022/04/05 01:12:23;;;;;;;7.65;6.80;;;;;;;5.12;88.12;99113.13;4888515;29;20436;-76
2022/04/05 01:14:50;;;;;;;8.60;7.57;;;;;;;5.13;88.30;99120.06;4886587;29;20041;-76
2022/04/05 01:17:16;;;;;;;8.00;6.88;;;;;;;5.13;88.18;99112.22;4886096;29;20045;-76
2022/04/05 01:19:42;;;;;;;9.15;7.30;;;;;;;5.13;88.87;99112.22;4888016;29;20040;-76
2022/04/05 01:22:07;;;;;;;8.52;7.05;;;;;;;5.04;89.65;99125.38;4885194;29;20492;-76
2022/04/05 01:24:33;;;;;;;9.68;7.57;;;;;;;5.04;89.58;99109.69;4888212;29;20047;-76
2022/04/05 01:27:02;;;;;;;7.53;6.72;;;;;;;5.05;90.11;99111.41;4884743;29;20470;-76
2022/04/05 01:29:28;;;;;;;8.98;6.90;;;;;;;5.00;90.08;99115.81;4888055;29;20115;-76
2022/04/05 01:31:59;;;;;;;8.50;7.32;;;;;;;5.02;90.01;99111.44;4885380;29;20601;-76
2022/04/05 01:34:27;;;;;;;10.07;8.63;;;;;;;4.98;89.93;99105.38;4887387;29;20033;-76
2022/04/05 01:36:58;;;;;;;8.73;6.75;;;;;;;4.99;89.98;99109.72;4887784;29;20032;-76
2022/04/05 01:39:27;;;;;;;8.85;7.60;;;;;;;4.89;90.20;99120.25;4888417;29;20504;-76
2022/04/05 01:41:56;;;;;;;9.60;7.72;;;;;;;4.87;90.94;99111.53;4886614;29;20037;-76
2022/04/05 01:44:21;;;;;;;10.27;8.38;;;;;;;4.87;91.77;99114.16;4900236;29;20138;-76
2022/04/05 01:46:47;;;;;;;10.05;8.77;;;;;;;4.84;91.64;99104.56;4888180;29;20506;-76
2022/04/05 01:49:15;;;;;;;10.07;7.93;;;;;;;4.88;91.38;99097.59;4886002;29;20041;-76
2022/04/05 01:51:42;;;;;;;10.07;8.50;;;;;;;4.86;90.99;99110.66;4886222;29;20044;-77
2022/04/05 01:54:09;;;;;;;10.63;9.02;;;;;;;4.82;91.08;99102.00;4894694;29;20393;-76
2022/04/05 01:56:41;;;;;;;10.50;8.88;;;;;;;4.88;91.35;99103.69;4889410;29;20040;-76
2022/04/05 01:59:07;;;;;;;11.98;9.90;;;;;;;4.86;90.88;99096.75;4886663;29;20040;-76
2022/04/05 02:01:32;;;;;;;9.93;8.43;;;;;;;4.87;91.22;99111.53;4886985;29;20097;-76
2022/04/05 02:03:58;;;;;;;10.77;9.05;;;;;;;4.87;90.73;99101.06;4892000;29;20089;-77
2022/04/05 02:06:24;;;;;;;10.75;8.88;;;;;;;4.86;90.91;99100.22;4917354;23;20048;-75
2022/04/05 02:08:50;;;;;;;9.70;8.52;;;;;;;4.83;90.95;99106.31;4908576;29;20045;-75
2022/04/05 02:11:16;;;;;;;9.50;8.50;;;;;;;4.86;91.52;99110.66;4916344;29;20043;-75
2022/04/05 02:13:44;;;;;;;9.80;8.80;;;;;;;4.81;91.19;99108.06;4908818;29;20033;-75
2022/04/05 02:16:10;;;;;;;9.82;8.73;;;;;;;4.84;91.51;99113.28;4916513;29;20035;-75
2022/04/05 02:18:37;;;;;;;10.68;8.30;;;;;;;4.84;91.59;99108.06;4923745;29;20044;-75
2022/04/05 02:21:03;;;;;;;9.60;7.95;;;;;;;4.84;91.25;99102.81;4922343;29;20033;-75
2022/04/05 02:23:29;;;;;;;9.40;7.72;;;;;;;4.82;91.43;99109.81;4924995;29;20036;-75
2022/04/05 02:26:12;;;;;;;9.48;7.88;;;;;;;4.80;91.80;99093.28;4929687;29;20042;-75
2022/04/05 02:28:42;;;;;;;8.95;7.63;;;;;;;4.74;92.53;99101.16;4922630;29;20040;-75
2022/04/05 02:31:11;;;;;;;11.25;8.30;;;;;;;4.77;92.31;99105.50;4922292;29;20033;-75
2022/04/05 02:33:38;;;;;;;9.93;8.35;;;;;;;4.81;92.24;99110.69;4924700;29;20087;-75
2022/04/05 02:36:09;;;;;;;9.52;7.82;;;;;;;4.78;92.72;99096.78;4920582;29;20071;-75
2022/04/05 02:38:36;;;;;;;9.43;8.15;;;;;;;4.80;93.09;99092.41;4926642;29;20078;-75
2022/04/05 02:41:05;;;;;;;9.35;6.55;;;;;;;4.82;92.12;99093.25;4925237;29;20527;-75
2022/04/05 02:43:32;;;;;;;8.48;7.22;;;;;;;4.76;92.77;99099.38;4921937;29;20127;-75
2022/04/05 02:45:58;;;;;;;9.18;7.90;;;;;;;4.80;92.69;99106.34;4907877;29;20035;-75
2022/04/05 02:48:26;;;;;;;8.57;6.72;;;;;;;4.82;92.20;99107.22;4923978;29;20046;-75
2022/04/05 02:50:54;;;;;;;8.43;7.35;;;;;;;4.81;93.50;99100.22;4921420;29;20046;-75
2022/04/05 02:53:20;;;;;;;11.45;8.65;;;;;;;4.79;93.28;99099.41;4909432;29;20040;-75
2022/04/05 02:55:46;;;;;;;10.45;7.95;;;;;;;4.81;93.43;99101.97;4922893;29;20559;-75
2022/04/05 02:58:12;;;;;;;9.35;8.05;;;;;;;4.84;93.33;99101.97;4922138;29;20040;-75
2022/04/05 03:00:39;;;;;;;9.70;6.90;;;;;;;4.84;92.27;99102.81;4924377;29;20455;-75
2022/04/05 03:03:10;;;;;;;7.72;6.32;;;;;;;4.86;92.56;99108.06;4908019;29;20036;-75
2022/04/05 03:05:38;;;;;;;9.05;6.75;;;;;;;4.87;92.71;99101.06;4924240;29;20059;-75
2022/04/05 03:08:06;;;;;;;7.82;6.22;;;;;;;4.80;92.56;99084.56;4916220;29;20507;-75
2022/04/05 03:10:32;;;;;;;7.85;6.15;;;;;;;4.84;92.66;99091.50;4906357;29;20033;-75
2022/04/05 03:13:00;;;;;;;7.45;5.97;;;;;;;4.88;92.50;99098.47;4922239;29;20039;-75
2022/04/05 03:15:27;;;;;;;8.93;6.78;;;;;;;4.82;92.08;99096.75;4921807;29;20131;-75
2022/04/05 03:17:55;;;;;;;7.63;5.80;;;;;;;4.85;92.72;99093.25;4928688;29;20038;-75
2022/04/05 03:20:22;;;;;;;8.65;6.07;;;;;;;4.86;92.27;99101.97;4923041;29;20040;-75
2022/04/05 03:22:50;;;;;;;7.97;6.10;;;;;;;4.83;92.84;99102.84;4911283;29;20112;-75
2022/04/05 03:25:15;;;;;;;7.97;6.00;;;;;;;4.83;92.89;99098.47;4908508;29;20032;-75
2022/04/05 03:27:43;;;;;;;8.07;6.68;;;;;;;4.88;92.97;99097.59;4921495;29;20097;-75
2022/04/05 03:30:12;;;;;;;7.28;5.50;;;;;;;4.94;92.34;99097.56;4924862;29;20047;-75
2022/04/05 03:32:39;;;;;;;6.72;5.60;;;;;;;4.89;92.77;99105.41;4924343;29;20646;-75
2022/04/05 03:35:06;;;;;;;6.78;5.65;;;;;;;4.91;92.62;99097.56;4920871;29;20519;-75
2022/04/05 03:37:33;;;;;;;8.93;6.05;;;;;;;4.91;92.96;99094.97;4922271;29;20032;-75
2022/04/05 03:40:00;;;;;;;6.53;5.22;;;;;;;4.88;93.11;99093.22;4921754;29;20096;-75
2022/04/05 03:42:26;;;;;;;8.00;6.53;;;;;;;4.92;93.40;99101.91;4923270;29;20042;-75
2022/04/05 03:44:52;;;;;;;8.93;6.75;;;;;;;4.89;93.54;99101.94;4922377;29;20036;-75
2022/04/05 03:47:17;;;;;;;8.23;5.72;;;;;;;4.88;93.35;99095.84;4927593;29;20455;-75
2022/04/05 03:49:43;;;;;;;7.65;6.00;;;;;;;4.91;93.06;99089.72;4913497;29;20040;-75
2022/04/05 03:52:09;;;;;;;6.72;5.30;;;;;;;4.96;92.83;99087.97;4909742;29;20039;-75
2022/04/05 03:54:36;;;;;;;7.05;5.53;;;;;;;4.95;93.18;99094.94;4922635;29;20524;-75
2022/04/05 03:57:06;;;;;;;8.98;5.13;;;;;;;4.95;93.02;99083.59;4921381;29;20100;-75
2022/04/05 03:59:33;;;;;;;5.78;4.32;;;;;;;4.97;92.90;99093.16;4925300;29;20036;-75
2022/04/05 04:01:59;;;;;;;7.47;4.95;;;;;;;4.96;92.59;99099.28;4913786;29;20058;-74
2022/04/05 04:04:24;;;;;;;6.13;4.90;;;;;;;4.93;92.48;99096.69;4922559;29;20063;-75
2022/04/05 04:06:50;;;;;;;6.10;4.47;;;;;;;5.03;92.04;99102.72;4908763;29;20032;-75
2022/04/05 04:09:15;;;;;;;7.20;5.18;;;;;;;4.99;92.77;99101.00;4913550;29;20032;-74
2022/04/05 04:11:44;;;;;;;5.55;4.20;;;;;;;5.01;92.23;99099.25;4909249;29;20055;-75
2022/04/05 04:14:10;;;;;;;5.28;3.78;;;;;;;5.03;92.87;99111.44;4911634;29;20062;-76
2022/04/05 04:16:36;;;;;;;7.78;4.07;;;;;;;5.03;91.52;99123.63;4923983;29;20507;-75
2022/04/05 04:19:02;;;;;;;5.55;4.15;;;;;;;5.04;91.51;99104.47;4925658;29;20115;-75
2022/04/05 04:21:30;;;;;;;5.10;3.85;;;;;;;5.02;91.80;99119.28;4908820;29;20502;-75
2022/04/05 04:23:56;;;;;;;6.07;4.68;;;;;;;5.09;92.41;99110.53;4913860;29;20324;-75
2022/04/05 04:26:22;;;;;;;5.35;3.95;;;;;;;5.10;92.18;99117.47;4912863;29;20021;-76
2022/04/05 04:28:51;;;;;;;6.18;4.68;;;;;;;5.10;92.67;99114.88;4914956;29;20808;-75
2022/04/05 04:31:16;;;;;;;5.28;4.18;;;;;;;5.05;93.10;99117.50;4913918;29;20028;-75
2022/04/05 04:33:41;;;;;;;6.13;4.60;;;;;;;5.13;92.35;99120.06;4914951;29;20507;-75
2022/04/05 04:36:07;;;;;;;7.28;4.32;;;;;;;5.11;93.21;99118.34;4915321;29;20418;-76
2022/04/05 04:38:34;;;;;;;6.07;5.00;;;;;;;5.10;93.49;99122.72;4913758;29;20035;-75
2022/04/05 04:41:00;;;;;;;9.38;5.82;;;;;;;5.11;93.89;99120.97;4909011;29;20036;-76
2022/04/05 04:43:27;;;;;;;6.30;4.75;;;;;;;5.09;94.81;99117.50;4913630;29;20064;-75
2022/04/05 04:45:53;;;;;;;6.75;4.88;;;;;;;5.08;94.33;99131.44;4907410;29;20521;-75
2022/04/05 04:48:19;;;;;;;7.25;5.68;;;;;;;5.04;94.54;99125.38;4912316;29;20043;-76
2022/04/05 04:50:46;;;;;;;8.20;5.18;;;;;;;5.00;95.18;99147.19;4925201;29;20040;-76
2022/04/05 04:53:11;;;;;;;7.00;5.20;;;;;;;5.02;95.14;99134.97;4906881;29;20040;-76
2022/04/05 04:55:37;;;;;;;8.55;6.30;;;;;;;5.05;95.35;99132.34;4908761;29;20099;-75
2022/04/05 04:58:02;;;;;;;6.85;5.63;;;;;;;5.09;95.20;99141.91;4910928;29;20578;-76
2022/04/05 05:00:27;;;;;;;9.73;4.90;;;;;;;5.03;95.41;99149.78;4910194;29;20708;-76
2022/04/05 05:02:53;;;;;;;6.35;5.00;;;;;;;5.04;95.58;99141.94;4926689;29;20499;-76
2022/04/05 05:05:19;;;;;;;6.82;5.43;;;;;;;5.04;95.81;99141.06;4908193;29;20467;-76
2022/04/05 05:07:47;;;;;;;6.32;5.00;;;;;;;5.09;95.75;99155.00;4913534;29;20067;-75
2022/04/05 05:10:13;;;;;;;7.95;5.40;;;;;;;5.06;95.85;99149.78;4910099;29;20487;-75
2022/04/05 05:12:41;;;;;;;6.15;4.72;;;;;;;5.09;95.05;99155.00;4904354;29;20144;-75
2022/04/05 05:15:08;;;;;;;7.45;5.60;;;;;;;5.11;95.26;99153.25;4906151;29;20071;-75
2022/04/05 05:17:34;;;;;;;7.60;5.57;;;;;;;5.10;95.71;99155.84;4906565;29;20039;-75
2022/04/05 05:19:59;;;;;;;7.00;5.90;;;;;;;5.09;96.10;99169.81;4904494;29;20059;-75
2022/04/05 05:22:25;;;;;;;7.78;5.90;;;;;;;5.08;96.33;99162.81;4921332;29;20036;-75
2022/04/05 05:24:50;;;;;;;5.75;4.63;;;;;;;5.16;95.38;99168.88;4905249;29;20095;-75
2022/04/05 05:27:15;;;;;;;7.57;5.55;;;;;;;5.13;95.93;99182.84;4905602;29;20529;-75
2022/04/05 05:29:41;;;;;;;6.85;6.00;;;;;;;5.18;95.18;99177.59;4909333;29;20032;-75
2022/04/05 05:32:06;;;;;;;7.30;5.05;;;;;;;5.19;94.94;99181.97;4908849;29;20519;-75
2022/04/05 05:34:32;;;;;;;6.95;5.75;;;;;;;5.17;95.14;99179.34;4905132;29;20127;-75
2022/04/05 05:36:57;;;;;;;7.50;6.00;;;;;;;5.26;94.39;99187.13;4911130;29;20031;-75
2022/04/05 05:39:23;;;;;;;6.95;6.03;;;;;;;5.30;94.81;99185.38;4909029;29;20059;-75
2022/04/05 05:41:48;;;;;;;6.90;6.20;;;;;;;5.34;94.70;99176.59;4912211;29;20067;-75
2022/04/05 05:44:13;;;;;;;8.98;6.97;;;;;;;5.40;94.68;99180.97;4907297;29;20044;-75
2022/04/05 05:46:39;;;;;;;7.00;6.03;;;;;;;5.39;94.59;99189.66;4908612;29;20036;-75
2022/04/05 05:49:04;;;;;;;7.13;6.43;;;;;;;5.36;94.70;99198.41;4910211;29;20087;-75
2022/04/05 05:51:29;;;;;;;7.78;6.80;;;;;;;5.44;94.30;99193.13;4906671;29;20452;-75
2022/04/05 05:53:55;;;;;;;8.10;6.05;;;;;;;5.47;94.80;99220.13;4907404;29;20040;-75
2022/04/05 05:56:20;;;;;;;7.32;6.63;;;;;;;5.46;94.47;99207.06;4904166;29;20063;-75
2022/04/05 05:58:46;;;;;;;10.13;9.13;;;;;;;5.50;95.09;99206.16;4920388;29;20135;-75
2022/04/05 06:01:11;;;;;;;9.27;8.27;;;;;;;5.56;94.69;99208.75;4917607;29;20476;-75
2022/04/05 06:03:36;;;;;;;8.18;7.20;;;;;;;5.59;94.00;99213.97;4906523;29;20463;-75
2022/04/05 06:06:02;;;;;;;8.85;7.53;;;;;;;5.62;93.88;99223.53;4903600;29;20052;-75
2022/04/05 06:08:27;;;;;;;9.10;8.13;;;;;;;5.64;93.79;99233.13;4909389;29;20040;-75
2022/04/05 06:10:52;;;;;;;8.38;7.40;;;;;;;5.65;94.09;99228.75;4908269;29;20051;-75
2022/04/05 06:13:18;;;;;;;8.77;7.40;;;;;;;5.77;93.81;99227.81;4908667;29;20103;-75
2022/04/05 06:15:43;;;;;;;7.55;6.75;;;;;;;5.85;93.35;99226.84;4909896;29;20080;-75
2022/04/05 06:18:08;;;;;;;9.07;7.45;;;;;;;5.83;93.67;99226.00;4904999;29;20066;-75
2022/04/05 06:20:34;;;;;;;8.88;7.45;;;;;;;5.99;93.23;99236.38;4922569;29;20036;-75
2022/04/05 06:23:02;;;;;;;7.80;6.95;;;;;;;6.09;92.70;99257.22;4909184;29;20053;-75
2022/04/05 06:25:30;;;;;;;8.35;7.32;;;;;;;6.13;92.49;99240.63;4922548;29;20120;-75
2022/04/05 06:27:57;;;;;;;8.70;7.40;;;;;;;6.17;92.79;99237.97;4918435;29;20064;-75
2022/04/05 06:30:23;;;;;;;8.63;7.30;;;;;;;6.25;92.34;99241.38;4912295;29;20075;-75
2022/04/05 06:32:48;;;;;;;8.55;7.65;;;;;;;6.26;92.05;99237.88;4918012;29;20135;-75
2022/04/05 06:35:14;;;;;;;9.88;8.82;;;;;;;6.27;91.89;99235.25;4906408;29;20048;-75
2022/04/05 06:37:43;;;;;;;8.00;7.20;;;;;;;6.37;92.19;99238.66;4903627;29;20060;-75
2022/04/05 06:40:10;;;;;;;12.82;8.82;;;;;;;6.29;91.95;99258.84;4905339;29;20036;-75
2022/04/05 06:42:41;;;;;;;10.90;9.23;;;;;;;6.40;91.98;99250.88;4901249;29;20036;-75
2022/04/05 06:45:10;;;;;;;11.27;10.07;;;;;;;6.42;91.83;99249.06;4903818;29;20116;-75
2022/04/05 06:47:37;;;;;;;10.55;9.30;;;;;;;6.44;92.22;99250.78;4919440;29;20402;-75
2022/04/05 06:50:05;;;;;;;10.98;9.88;;;;;;;6.37;92.26;99257.00;4905945;29;20103;-75
2022/04/05 06:52:30;;;;;;;10.48;9.43;;;;;;;6.35;92.66;99301.56;4902063;29;20041;-75
2022/04/05 06:54:55;;;;;;;15.85;12.05;;;;;;;6.11;94.36;99328.81;4907460;29;20240;-75
2022/04/05 06:57:21;;;;;;;6.78;5.28;;;;;;;5.76;93.52;99329.00;4908435;29;20501;-75
2022/04/05 06:59:46;;;;;;;7.43;4.15;;;;;;;5.54;93.56;99324.78;4911111;29;20635;-75
2022/04/05 07:02:11;;;;;;;6.78;2.88;;;;;;;5.42;93.21;99344.91;4903550;29;20488;-74
2022/04/05 07:04:37;;;;;;;4.53;2.70;;;;;;;5.30;93.22;99337.09;4908800;29;20040;-73
2022/04/05 07:07:02;;;;;;;5.43;2.20;;;;;;;5.22;94.41;99339.75;4908539;29;20045;-74
2022/04/05 07:09:28;;;;;;;6.45;1.88;;;;;;;5.12;93.60;99338.03;4908070;29;20032;-74
2022/04/05 07:11:53;;;;;;;4.03;1.48;;;;;;;5.09;93.96;99348.50;4907599;29;20047;-75
2022/04/05 07:14:18;;;;;;;4.57;1.48;;;;;;;5.02;94.44;99349.41;4906516;29;20091;-75
2022/04/05 07:16:47;;;;;;;3.28;1.27;;;;;;;5.04;94.61;99353.75;4908568;29;20047;-75
2022/04/05 07:19:12;;;;;;;4.68;1.17;;;;;;;5.05;94.87;99352.84;4907802;29;20032;-75
2022/04/05 07:21:37;;;;;;;4.13;1.40;;;;;;;5.06;94.10;99348.53;4906743;29;20045;-74
2022/04/05 07:24:03;;;;;;;7.22;2.40;;;;;;;5.12;94.60;99352.88;4909375;29;20047;-75
2022/04/05 07:26:28;;;;;;;7.15;2.22;;;;;;;5.04;94.68;99358.97;4923638;29;20032;-75
2022/04/05 07:28:54;;;;;;;5.18;1.70;;;;;;;5.10;95.21;99359.84;4906950;29;20039;-75
2022/04/05 07:31:19;;;;;;;6.30;1.63;;;;;;;5.14;94.70;99361.59;4903495;29;20129;-75
2022/04/05 07:33:44;;;;;;;6.72;2.08;;;;;;;5.11;95.24;99357.22;4923528;29;20039;-75
2022/04/05 07:36:10;;;;;;;6.22;1.55;;;;;;;5.12;94.17;99356.34;4906203;29;20040;-75
2022/04/05 07:38:35;;;;;;;6.57;1.70;;;;;;;5.06;95.44;99361.59;4908581;29;20471;-75
2022/04/05 07:41:00;;;;;;;5.15;1.60;;;;;;;5.10;95.26;99362.47;4907008;29;20067;-75
2022/04/05 07:43:27;;;;;;;6.78;1.52;;;;;;;5.16;94.23;99363.31;4908542;29;20104;-75
2022/04/05 07:45:54;;;;;;;5.90;1.55;;;;;;;5.18;93.59;99358.94;4908470;29;20043;-75
2022/04/05 07:48:26;;;;;;;8.45;1.65;;;;;;;5.19;93.23;99359.81;4910570;29;20104;-75
2022/04/05 07:50:51;;;;;;;5.33;1.60;;;;;;;5.22;93.88;99352.81;4909245;29;20720;-75
2022/04/05 07:53:17;;;;;;;8.35;1.35;;;;;;;5.32;93.34;99368.47;4908557;29;20300;-75
2022/04/05 07:55:42;;;;;;;8.02;1.95;;;;;;;5.34;92.45;99370.22;4913731;29;20056;-74
2022/04/05 07:58:08;;;;;;;7.30;1.80;;;;;;;5.39;92.18;99367.59;4908025;29;20028;-75
2022/04/05 08:00:34;;;;;;;6.15;1.40;;;;;;;5.33;92.06;99401.63;4908895;29;20047;-74
2022/04/05 08:02:59;;;;;;;8.35;2.03;;;;;;;5.33;91.74;99378.94;4912010;29;20036;-74
2022/04/05 08:05:25;;;;;;;7.72;1.13;;;;;;;5.35;91.92;99392.03;4903258;29;20047;-74
2022/04/05 08:07:51;;;;;;;8.05;1.85;;;;;;;5.39;91.57;99378.06;4910460;29;20055;-74
2022/04/05 08:10:16;;;;;;;4.07;1.10;;;;;;;5.41;91.22;99381.53;4908349;29;20043;-75
2022/04/05 08:12:47;;;;;;;6.57;1.23;;;;;;;5.48;90.23;99378.03;4921739;29;20036;-74
2022/04/05 08:15:23;;;;;;;6.57;1.60;;;;;;;5.55;89.73;99386.72;4905305;29;20052;-74
2022/04/05 08:17:50;;;;;;;5.50;0.98;;;;;;;5.68;88.94;99384.03;4908432;29;20036;-74
2022/04/05 08:20:16;;;;;;;6.57;1.30;;;;;;;5.76;87.30;99394.47;4912791;29;20044;-74
2022/04/05 08:22:42;;;;;;;6.35;1.20;;;;;;;5.81;87.60;99391.84;4913005;29;20047;-74
2022/04/05 08:25:09;;;;;;;6.50;1.25;;;;;;;5.79;87.51;99388.34;4913004;29;20040;-74
2022/04/05 08:27:34;;;;;;;4.63;1.35;;;;;;;5.81;89.24;99387.47;4912765;29;20135;-74
2022/04/05 08:30:01;;;;;;;9.93;1.50;;;;;;;6.01;88.86;99395.25;4913506;29;20074;-74
2022/04/05 08:32:29;;;;;;;7.78;1.38;;;;;;;6.13;87.30;99395.19;4912129;29;20585;-75
2022/04/05 08:34:55;;;;;;;4.50;1.17;;;;;;;6.33;86.84;99387.16;4912342;29;20123;-74
2022/04/05 08:37:22;;;;;;;5.57;1.45;;;;;;;6.54;85.55;99396.63;4906210;29;20683;-74
2022/04/05 08:39:48;;;;;;;5.90;1.40;;;;;;;6.71;83.87;99400.88;4907924;29;20522;-75
2022/04/05 08:42:14;;;;;;;9.25;1.95;;;;;;;6.78;85.24;99407.78;4904913;29;20036;-75
2022/04/05 08:44:42;;;;;;;7.30;2.08;;;;;;;6.82;83.79;99401.66;4911467;29;20035;-74
2022/04/05 08:47:10;;;;;;;7.15;1.52;;;;;;;6.77;82.86;99403.44;4911445;29;20040;-74
2022/04/05 08:49:37;;;;;;;4.90;1.83;;;;;;;6.81;83.00;99399.88;4908692;29;20108;-75
2022/04/05 08:52:02;;;;;;;8.52;1.55;;;;;;;6.93;83.20;99409.41;4908303;29;20508;-74
2022/04/05 08:54:28;;;;;;;5.55;1.33;;;;;;;6.83;81.09;99405.13;4923915;29;20040;-75
2022/04/05 08:56:54;;;;;;;3.65;1.30;;;;;;;6.84;79.96;99423.47;4922821;29;20499;-75
2022/04/05 08:59:19;;;;;;;4.35;1.50;;;;;;;6.93;79.13;99420.75;4912254;29;20542;-74
2022/04/05 09:01:45;;;;;;;8.85;1.60;;;;;;;6.97;77.92;99421.63;4907942;29;20039;-74
2022/04/05 09:04:10;;;;;;;9.20;1.83;;;;;;;7.12;78.45;99415.34;4906279;29;20036;-75
2022/04/05 09:06:36;;;;;;;4.63;1.55;;;;;;;7.32;78.01;99410.75;4909656;29;20032;-75
2022/04/05 09:09:16;;;;;;;5.03;1.10;;;;;;;7.43;76.22;99432.50;4907892;29;20040;-75
2022/04/05 09:11:56;;;;;;;3.83;0.90;;;;;;;7.62;76.82;99422.69;4906115;29;20055;-75
2022/04/05 09:14:27;;;;;;;3.75;1.13;;;;;;;7.72;75.00;99428.66;4921119;29;20040;-75
2022/04/05 09:17:07;;;;;;;5.57;1.10;;;;;;;7.88;73.29;99422.31;4907417;29;20123;-74
2022/04/05 09:19:48;;;;;;;4.20;0.93;;;;;;;8.18;74.89;99424.59;4909307;29;20479;-74
2022/04/05 09:22:13;;;;;;;8.73;1.50;;;;;;;8.47;74.17;99424.19;4919593;29;20400;-75
2022/04/05 09:24:43;;;;;;;4.72;1.13;;;;;;;8.58;72.76;99422.25;4905846;29;20028;-74
2022/04/05 09:27:09;;;;;;;5.78;1.23;;;;;;;8.61;70.88;99426.59;4921521;29;20048;-75
2022/04/05 09:29:44;;;;;;;8.30;1.73;;;;;;;8.62;70.05;99439.75;4910774;29;20042;-74
2022/04/05 09:32:10;;;;;;;5.80;1.30;;;;;;;8.82;70.47;99422.75;4907889;29;20032;-74
2022/04/05 09:34:50;;;;;;;4.97;1.35;;;;;;;9.02;69.35;99423.28;4907154;29;20135;-74
2022/04/05 09:37:16;;;;;;;5.22;1.27;;;;;;;9.32;69.06;99415.72;4904742;29;20135;-74
2022/04/05 09:39:43;;;;;;;8.88;1.42;;;;;;;9.58;65.86;99407.31;4906859;29;20064;-74
2022/04/05 09:42:09;;;;;;;6.47;1.52;;;;;;;9.38;62.19;99407.72;4906176;29;20044;-74
2022/04/05 09:44:37;;;;;;;5.57;1.40;;;;;;;9.18;63.98;99413.34;4905702;29;20054;-74
2022/04/05 09:47:09;;;;;;;4.53;0.90;;;;;;;8.94;63.51;99431.31;4920726;29;20036;-74
2022/04/05 09:49:37;;;;;;;3.53;1.30;;;;;;;8.67;64.00;99432.66;4904251;29;20072;-74
2022/04/05 09:52:21;;;;;;;4.32;1.45;;;;;;;8.71;63.61;99434.31;4903988;29;20120;-74
2022/04/05 09:54:46;;;;;;;5.53;1.75;;;;;;;8.80;63.58;99422.75;4905946;29;20070;-74
2022/04/05 09:57:11;;;;;;;5.95;0.95;;;;;;;9.01;62.65;99421.53;4913931;29;20640;-74
2022/04/05 09:59:42;;;;;;;3.40;0.95;;;;;;;9.06;62.68;99416.19;4907613;29;20110;-74
2022/04/05 10:02:17;;;;;;;2.75;0.90;;;;;;;9.17;62.48;99428.28;4903379;29;20068;-74
2022/04/05 10:05:06;;;;;;;4.35;1.35;;;;;;;9.32;63.12;99415.72;4910343;29;20385;-73
2022/04/05 10:07:32;;;;;;;4.13;1.20;;;;;;;9.57;63.04;99421.38;4912118;29;20043;-74
2022/04/05 10:09:59;;;;;;;5.60;0.90;;;;;;;9.67;60.72;99422.94;4910859;29;20059;-74
2022/04/05 10:12:25;;;;;;;5.63;1.55;;;;;;;9.73;62.36;99424.59;4910658;29;20518;-73
2022/04/05 10:14:51;;;;;;;4.88;1.20;;;;;;;9.83;59.49;99423.50;4909636;29;20036;-74
2022/04/05 10:17:18;;;;;;;4.50;1.02;;;;;;;9.59;60.78;99435.41;4911455;29;20531;-74
2022/04/05 10:19:49;;;;;;;4.65;1.30;;;;;;;9.64;60.73;99429.16;4911780;29;20491;-74
2022/04/05 10:22:16;;;;;;;6.57;1.10;;;;;;;9.61;60.27;99434.44;4905501;29;20040;-74
2022/04/05 10:24:42;;;;;;;3.88;0.93;;;;;;;9.40;60.62;99433.09;4906005;29;20064;-74
2022/04/05 10:27:09;;;;;;;4.40;1.05;;;;;;;9.51;60.83;99426.75;4903644;29;20041;-74
2022/04/05 10:29:35;;;;;;;6.70;1.30;;;;;;;9.69;59.57;99425.53;4911565;29;20516;-74
2022/04/05 10:32:21;;;;;;;4.60;1.15;;;;;;;9.86;60.39;99429.56;4909952;29;20043;-74
2022/04/05 10:34:53;;;;;;;4.28;1.15;;;;;;;9.67;58.96;99433.47;4911436;29;20104;-74
2022/04/05 10:37:30;;;;;;;9.55;1.00;;;;;;;9.60;59.94;99429.22;4901270;29;20072;-74
2022/04/05 10:39:56;;;;;;;4.57;1.30;;;;;;;9.46;59.85;99455.84;4910833;29;20036;-74
2022/04/05 10:42:22;;;;;;;6.53;1.52;;;;;;;9.44;59.72;99439.19;4912240;29;20097;-74
2022/04/05 10:45:12;;;;;;;5.15;1.00;;;;;;;9.48;61.35;99432.09;4909474;29;20130;-75
2022/04/05 10:48:12;;;;;;;5.38;1.05;;;;;;;9.38;59.56;99465.66;4907178;29;20041;-73
2022/04/05 10:50:39;;;;;;;5.22;1.00;;;;;;;9.47;60.12;99431.22;4913917;29;20040;-74
2022/04/05 10:53:19;;;;;;;3.78;0.77;;;;;;;9.49;61.63;99434.72;4911934;29;20380;-74
2022/04/05 10:56:02;;;;;;;5.22;1.23;;;;;;;9.37;60.99;99451.59;4908605;29;20036;-74
2022/04/05 10:58:29;;;;;;;6.22;1.35;;;;;;;9.25;62.16;99449.22;4920124;29;20131;-74
2022/04/05 11:01:23;;;;;;;4.88;1.20;;;;;;;9.05;62.12;99439.00;4911180;29;20091;-74
2022/04/05 11:04:12;;;;;;;4.65;1.85;;;;;;;9.08;61.48;99459.16;4911405;29;20059;-74
2022/04/05 11:06:59;;;;;;;8.48;1.40;;;;;;;9.20;63.01;99444.00;4908618;29;20458;-74
2022/04/05 11:09:30;;;;;;;5.18;1.38;;;;;;;9.46;62.87;99445.31;4912622;29;20374;-74
2022/04/05 11:11:56;;;;;;;4.90;1.80;;;;;;;9.46;62.13;99465.47;4912788;29;20524;-74
2022/04/05 11:14:38;;;;;;;7.45;1.50;;;;;;;9.51;61.46;99446.09;4908606;29;20043;-74
2022/04/05 11:17:07;;;;;;;8.18;1.30;;;;;;;9.55;61.15;99460.91;4914684;29;20075;-74
2022/04/05 11:19:35;;;;;;;7.03;1.38;;;;;;;9.42;61.61;99448.88;4906846;29;20051;-74
2022/04/05 11:22:22;;;;;;;6.35;1.50;;;;;;;9.46;61.92;99450.56;4908929;29;20149;-74
2022/04/05 11:24:55;;;;;;;6.22;1.45;;;;;;;9.84;62.27;99435.75;4909392;29;20046;-74
2022/04/05 11:27:45;;;;;;;6.93;1.75;;;;;;;10.18;61.24;99440.31;4922850;29;20036;-74
2022/04/05 11:30:23;;;;;;;5.97;1.85;;;;;;;10.71;61.36;99435.59;4906568;29;20080;-74
2022/04/05 11:33:10;;;;;;;3.80;1.27;;;;;;;10.65;60.29;99441.91;4909140;29;20043;-74
2022/04/05 11:35:47;;;;;;;6.00;1.83;;;;;;;10.38;60.69;99440.78;4906995;29;20143;-74
2022/04/05 11:38:37;;;;;;;4.10;1.40;;;;;;;10.53;61.77;99435.16;4923984;29;20036;-73
2022/04/05 11:41:24;;;;;;;4.72;1.77;;;;;;;10.45;61.59;99429.19;4908687;29;20036;-74
2022/04/05 11:43:55;;;;;;;7.00;1.70;;;;;;;10.41;61.07;99443.34;4908647;29;20058;-74
2022/04/05 11:46:37;;;;;;;6.45;1.85;;;;;;;10.40;61.25;99431.06;4906909;29;20040;-74